Wetterdaten: Freitag, 08.05.2015
Datum Zeit Auen-Temp. Temp gefhlt Luftfeuchte Luftdruck Regen Wind Richtung Richtung Taupunkt Windben
08.05.2015 00:00 7,1 C 6,8 C 84 % 1017,5 hPa 0,0 mm 0,0 km/h (0 Bft) O-NO 67 4,6 C 0,0 km/h (0 Bft)
08.05.2015 00:05 6,9 C 6,6 C 84 % 1017,5 hPa 0,0 mm 0,0 km/h (0 Bft) O 90 4,4 C 0,0 km/h (0 Bft)
08.05.2015 00:10 6,5 C 6,3 C 83 % 1017,5 hPa 0,0 mm 0,0 km/h (0 Bft) O 90 3,8 C 0,0 km/h (0 Bft)
08.05.2015 00:15 6,4 C 6,2 C 83 % 1017,4 hPa 0,0 mm 0,0 km/h (0 Bft) O-NO 67 3,7 C 0,0 km/h (0 Bft)
08.05.2015 00:20 6,2 C 6,0 C 82 % 1017,4 hPa 0,0 mm 0,0 km/h (0 Bft) O-NO 67 3,4 C 0,0 km/h (0 Bft)
08.05.2015 00:25 6,2 C 6,0 C 82 % 1017,4 hPa 0,0 mm 0,0 km/h (0 Bft) O-NO 67 3,4 C 0,0 km/h (0 Bft)
08.05.2015 00:30 6,1 C 5,8 C 83 % 1017,4 hPa 0,0 mm 0,0 km/h (0 Bft) O-NO 67 3,4 C 0,0 km/h (0 Bft)
08.05.2015 00:35 5,9 C 5,7 C 83 % 1017,4 hPa 0,0 mm 0,0 km/h (0 Bft) O-NO 67 3,2 C 0,0 km/h (0 Bft)
08.05.2015 00:40 5,9 C 5,6 C 84 % 1017,4 hPa 0,0 mm 0,0 km/h (0 Bft) O-NO 67 3,4 C 0,0 km/h (0 Bft)
08.05.2015 00:45 6,0 C 5,7 C 83 % 1017,4 hPa 0,0 mm 0,0 km/h (0 Bft) O 90 3,3 C 0,0 km/h (0 Bft)
08.05.2015 00:50 6,1 C 5,8 C 84 % 1017,4 hPa 0,0 mm 0,0 km/h (0 Bft) O-SO 112 3,6 C 0,0 km/h (0 Bft)
08.05.2015 00:55 5,9 C 5,6 C 85 % 1017,1 hPa 0,0 mm 0,0 km/h (0 Bft) O-NO 67 3,6 C 0,0 km/h (0 Bft)
08.05.2015 01:00 5,8 C 5,6 C 85 % 1017,1 hPa 0,0 mm 0,0 km/h (0 Bft) O 90 3,5 C 0,0 km/h (0 Bft)
08.05.2015 01:05 5,7 C 5,5 C 85 % 1017,1 hPa 0,0 mm 0,0 km/h (0 Bft) O 90 3,4 C 0,0 km/h (0 Bft)
08.05.2015 01:10 5,4 C 5,2 C 85 % 1017,1 hPa 0,0 mm 0,0 km/h (0 Bft) O 90 3,1 C 0,0 km/h (0 Bft)
08.05.2015 01:15 5,5 C 5,3 C 85 % 1016,8 hPa 0,0 mm 0,0 km/h (0 Bft) O-NO 67 3,2 C 0,0 km/h (0 Bft)
08.05.2015 01:20 5,7 C 5,4 C 85 % 1016,8 hPa 0,0 mm 0,0 km/h (0 Bft) SO 135 3,4 C 0,0 km/h (0 Bft)
08.05.2015 01:25 5,5 C 5,3 C 85 % 1016,8 hPa 0,0 mm 0,0 km/h (0 Bft) O-SO 112 3,2 C 0,0 km/h (0 Bft)
08.05.2015 01:30 5,4 C 5,3 C 85 % 1016,8 hPa 0,0 mm 0,0 km/h (0 Bft) O-NO 67 3,1 C 0,0 km/h (0 Bft)
08.05.2015 01:35 5,6 C 5,3 C 86 % 1016,8 hPa 0,0 mm 0,0 km/h (0 Bft) SO 135 3,4 C 0,0 km/h (0 Bft)
08.05.2015 01:40 5,5 C 5,3 C 86 % 1016,8 hPa 0,0 mm 0,0 km/h (0 Bft) N-NO 22 3,3 C 0,0 km/h (0 Bft)
08.05.2015 01:45 5,5 C 5,4 C 86 % 1016,8 hPa 0,0 mm 0,0 km/h (0 Bft) N-NO 22 3,3 C 0,0 km/h (0 Bft)
08.05.2015 01:50 5,5 C 5,3 C 86 % 1016,8 hPa 0,0 mm 0,0 km/h (0 Bft) N-NO 22 3,3 C 0,0 km/h (0 Bft)
08.05.2015 01:55 5,5 C 5,3 C 86 % 1016,6 hPa 0,0 mm 0,0 km/h (0 Bft) NO 45 3,3 C 0,0 km/h (0 Bft)
08.05.2015 02:00 5,6 C 5,4 C 87 % 1016,6 hPa 0,0 mm 0,0 km/h (0 Bft) NO 45 3,6 C 0,0 km/h (0 Bft)
08.05.2015 02:05 5,5 C 5,3 C 87 % 1016,6 hPa 0,0 mm 0,0 km/h (0 Bft) NO 45 3,5 C 0,0 km/h (0 Bft)
08.05.2015 02:10 5,5 C 5,4 C 87 % 1016,6 hPa 0,0 mm 0,0 km/h (0 Bft) NO 45 3,5 C 0,0 km/h (0 Bft)
08.05.2015 02:15 5,6 C 5,5 C 87 % 1016,3 hPa 0,0 mm 0,0 km/h (0 Bft) NO 45 3,6 C 0,0 km/h (0 Bft)
08.05.2015 02:20 5,8 C 5,7 C 85 % 1016,3 hPa 0,0 mm 0,0 km/h (0 Bft) NO 45 3,5 C 0,0 km/h (0 Bft)
08.05.2015 02:25 5,8 C 5,7 C 85 % 1016,3 hPa 0,0 mm 0,0 km/h (0 Bft) O-NO 67 3,5 C 0,0 km/h (0 Bft)
08.05.2015 02:30 5,9 C 5,8 C 88 % 1016,3 hPa 0,0 mm 0,0 km/h (0 Bft) O-NO 67 4,1 C 0,0 km/h (0 Bft)
08.05.2015 02:35 5,9 C 5,8 C 88 % 1016,2 hPa 0,0 mm 0,0 km/h (0 Bft) O-NO 67 4,1 C 0,0 km/h (0 Bft)
08.05.2015 02:40 6,0 C 5,8 C 87 % 1016,2 hPa 0,0 mm 0,0 km/h (0 Bft) O-NO 67 4,0 C 0,0 km/h (0 Bft)
08.05.2015 02:45 6,1 C 5,9 C 87 % 1016,2 hPa 0,0 mm 0,0 km/h (0 Bft) O-NO 67 4,1 C 0,0 km/h (0 Bft)
08.05.2015 02:50 6,4 C 6,3 C 84 % 1016,2 hPa 0,0 mm 1,0 km/h (0 Bft) S-SW 202 3,9 C 0,0 km/h (0 Bft)
08.05.2015 02:55 6,5 C 6,4 C 88 % 1016,1 hPa 0,0 mm 1,6 km/h (1 Bft) W-SW 247 4,7 C 0,0 km/h (0 Bft)
08.05.2015 03:00 6,5 C 6,4 C 88 % 1016,1 hPa 0,0 mm 1,3 km/h (1 Bft) S-SW 202 4,7 C 2,6 km/h (1 Bft)
08.05.2015 03:05 6,5 C 6,4 C 88 % 1016,1 hPa 0,0 mm 1,6 km/h (1 Bft) W-SW 247 4,7 C 3,1 km/h (1 Bft)
08.05.2015 03:10 6,6 C 6,5 C 88 % 1016,1 hPa 0,0 mm 1,8 km/h (1 Bft) W-SW 247 4,8 C 0,0 km/h (0 Bft)
08.05.2015 03:15 6,5 C 6,4 C 88 % 1016,0 hPa 0,0 mm 0,8 km/h (0 Bft) W-SW 247 4,7 C 0,0 km/h (0 Bft)
08.05.2015 03:20 6,4 C 6,3 C 88 % 1016,0 hPa 0,0 mm 0,0 km/h (0 Bft) SW 225 4,6 C 0,0 km/h (0 Bft)
08.05.2015 03:25 6,3 C 6,2 C 88 % 1016,0 hPa 0,0 mm 0,0 km/h (0 Bft) W 270 4,5 C 0,0 km/h (0 Bft)
08.05.2015 03:30 6,5 C 6,3 C 88 % 1016,0 hPa 0,0 mm 0,0 km/h (0 Bft) W 270 4,7 C 0,0 km/h (0 Bft)
08.05.2015 03:35 6,5 C 6,3 C 88 % 1015,9 hPa 0,0 mm 0,0 km/h (0 Bft) W 270 4,7 C 0,0 km/h (0 Bft)
08.05.2015 03:40 6,3 C 6,2 C 87 % 1015,9 hPa 0,0 mm 0,0 km/h (0 Bft) W-NW 292 4,3 C 0,0 km/h (0 Bft)
08.05.2015 03:45 6,4 C 6,2 C 88 % 1015,9 hPa 0,0 mm 0,0 km/h (0 Bft) S 180 4,6 C 0,0 km/h (0 Bft)
08.05.2015 03:50 6,4 C 6,2 C 88 % 1015,9 hPa 0,0 mm 0,0 km/h (0 Bft) S 180 4,6 C 0,0 km/h (0 Bft)
08.05.2015 03:55 6,4 C 6,2 C 88 % 1015,9 hPa 0,0 mm 0,0 km/h (0 Bft) S 180 4,6 C 0,0 km/h (0 Bft)
08.05.2015 04:00 6,4 C 6,2 C 88 % 1015,9 hPa 0,0 mm 0,0 km/h (0 Bft) S 180 4,6 C 0,0 km/h (0 Bft)
08.05.2015 04:05 6,4 C 6,3 C 85 % 1015,9 hPa 0,0 mm 0,5 km/h (0 Bft) O-SO 112 4,1 C 3,9 km/h (1 Bft)
08.05.2015 04:10 6,5 C 6,5 C 85 % 1015,9 hPa 0,0 mm 1,8 km/h (1 Bft) W 270 4,2 C 12,4 km/h (3 Bft)
08.05.2015 04:15 6,6 C 6,5 C 85 % 1015,9 hPa 0,0 mm 4,4 km/h (1 Bft) W 270 4,3 C 6,7 km/h (2 Bft)
08.05.2015 04:20 6,6 C 6,4 C 89 % 1015,9 hPa 0,0 mm 3,9 km/h (1 Bft) SW 225 4,9 C 14,8 km/h (3 Bft)
08.05.2015 04:25 6,6 C 6,4 C 89 % 1015,9 hPa 0,0 mm 1,3 km/h (1 Bft) SO 135 4,9 C 0,0 km/h (0 Bft)
08.05.2015 04:30 6,3 C 6,1 C 89 % 1015,9 hPa 0,0 mm 0,3 km/h (0 Bft) W-SW 247 4,6 C 0,0 km/h (0 Bft)
08.05.2015 04:35 6,5 C 6,2 C 89 % 1015,6 hPa 0,0 mm 0,3 km/h (0 Bft) SO 135 4,8 C 2,6 km/h (1 Bft)
08.05.2015 04:40 6,3 C 6,1 C 89 % 1015,6 hPa 0,0 mm 0,3 km/h (0 Bft) W 270 4,6 C 0,0 km/h (0 Bft)
08.05.2015 04:45 6,5 C 6,2 C 89 % 1015,6 hPa 0,0 mm 1,6 km/h (1 Bft) W-SW 247 4,8 C 11,9 km/h (2 Bft)
08.05.2015 04:50 6,5 C 6,3 C 89 % 1015,6 hPa 0,0 mm 2,1 km/h (1 Bft) O-NO 67 4,8 C 0,0 km/h (0 Bft)
08.05.2015 04:55 6,4 C 6,2 C 89 % 1015,6 hPa 0,0 mm 1,8 km/h (1 Bft) O-NO 67 4,7 C 0,0 km/h (0 Bft)
08.05.2015 05:00 6,2 C 6,1 C 89 % 1015,6 hPa 0,0 mm 0,3 km/h (0 Bft) N-NW 337 4,5 C 0,0 km/h (0 Bft)
08.05.2015 05:05 6,2 C 6,1 C 88 % 1015,6 hPa 0,0 mm 0,3 km/h (0 Bft) N-NW 337 4,4 C 0,0 km/h (0 Bft)
08.05.2015 05:10 6,1 C 6,0 C 88 % 1015,6 hPa 0,0 mm 0,0 km/h (0 Bft) N-NW 337 4,3 C 0,0 km/h (0 Bft)
08.05.2015 05:15 6,2 C 6,0 C 88 % 1015,6 hPa 0,0 mm 0,3 km/h (0 Bft) W-SW 247 4,4 C 6,2 km/h (2 Bft)
08.05.2015 05:20 6,7 C 6,5 C 89 % 1015,6 hPa 0,0 mm 1,6 km/h (1 Bft) S-SO 157 5,0 C 0,0 km/h (0 Bft)
08.05.2015 05:25 6,5 C 6,4 C 88 % 1015,6 hPa 0,0 mm 1,6 km/h (1 Bft) S-SO 157 4,7 C 0,0 km/h (0 Bft)
08.05.2015 05:30 6,3 C 6,2 C 88 % 1015,6 hPa 0,0 mm 0,0 km/h (0 Bft) S 180 4,5 C 0,0 km/h (0 Bft)
08.05.2015 05:35 6,3 C 6,2 C 88 % 1015,6 hPa 0,0 mm 0,0 km/h (0 Bft) W 270 4,5 C 0,0 km/h (0 Bft)
08.05.2015 05:40 6,3 C 6,2 C 88 % 1015,6 hPa 0,0 mm 0,0 km/h (0 Bft) W 270 4,5 C 0,0 km/h (0 Bft)
08.05.2015 05:45 6,3 C 6,1 C 88 % 1015,6 hPa 0,0 mm 0,0 km/h (0 Bft) NW 315 4,5 C 0,0 km/h (0 Bft)
08.05.2015 05:50 6,4 C 6,3 C 85 % 1015,6 hPa 0,0 mm 0,0 km/h (0 Bft) NW 315 4,1 C 0,0 km/h (0 Bft)
08.05.2015 05:55 6,4 C 6,3 C 85 % 1015,8 hPa 0,0 mm 0,0 km/h (0 Bft) NW 315 4,1 C 0,0 km/h (0 Bft)
08.05.2015 06:00 6,4 C 6,3 C 85 % 1015,8 hPa 0,0 mm 0,0 km/h (0 Bft) NW 315 4,1 C 0,0 km/h (0 Bft)
08.05.2015 06:05 6,5 C 6,4 C 85 % 1015,8 hPa 0,0 mm 0,0 km/h (0 Bft) NW 315 4,2 C 0,0 km/h (0 Bft)
08.05.2015 06:10 6,5 C 6,3 C 89 % 1015,8 hPa 0,0 mm 0,0 km/h (0 Bft) O-NO 67 4,8 C 0,0 km/h (0 Bft)
08.05.2015 06:15 6,5 C 6,3 C 89 % 1015,6 hPa 0,0 mm 0,0 km/h (0 Bft) O 90 4,8 C 0,0 km/h (0 Bft)
08.05.2015 06:20 6,7 C 6,4 C 90 % 1015,6 hPa 0,0 mm 0,0 km/h (0 Bft) SO 135 5,2 C 0,0 km/h (0 Bft)
08.05.2015 06:25 6,7 C 6,4 C 90 % 1015,6 hPa 0,0 mm 0,0 km/h (0 Bft) SO 135 5,2 C 0,0 km/h (0 Bft)
08.05.2015 06:30 6,4 C 6,2 C 89 % 1015,6 hPa 0,0 mm 0,0 km/h (0 Bft) S-SW 202 4,7 C 0,0 km/h (0 Bft)
08.05.2015 06:35 6,3 C 6,2 C 89 % 1015,6 hPa 0,0 mm 0,0 km/h (0 Bft) S 180 4,6 C 0,0 km/h (0 Bft)
08.05.2015 06:40 6,4 C 6,4 C 89 % 1015,6 hPa 0,0 mm 0,0 km/h (0 Bft) S 180 4,7 C 0,0 km/h (0 Bft)
08.05.2015 06:45 6,7 C 6,9 C 86 % 1015,6 hPa 0,0 mm 0,0 km/h (0 Bft) SO 135 4,5 C 0,0 km/h (0 Bft)
08.05.2015 06:50 6,9 C 9,0 C 86 % 1015,6 hPa 0,0 mm 0,0 km/h (0 Bft) O-SO 112 4,7 C 0,0 km/h (0 Bft)
08.05.2015 06:55 7,3 C 10,6 C 86 % 1015,7 hPa 0,0 mm 0,0 km/h (0 Bft) O-SO 112 5,1 C 0,0 km/h (0 Bft)
08.05.2015 07:00 8,0 C 12,5 C 85 % 1015,7 hPa 0,0 mm 0,0 km/h (0 Bft) O-SO 112 5,6 C 0,0 km/h (0 Bft)
08.05.2015 07:05 8,1 C 13,4 C 89 % 1015,7 hPa 0,0 mm 0,0 km/h (0 Bft) SO 135 6,4 C 0,0 km/h (0 Bft)
08.05.2015 07:10 8,3 C 14,1 C 88 % 1015,7 hPa 0,0 mm 0,3 km/h (0 Bft) O-SO 112 6,4 C 0,0 km/h (0 Bft)
08.05.2015 07:15 8,2 C 14,6 C 88 % 1015,9 hPa 0,0 mm 0,3 km/h (0 Bft) N 360 6,3 C 0,0 km/h (0 Bft)
08.05.2015 07:20 8,3 C 15,1 C 88 % 1015,9 hPa 0,0 mm 0,0 km/h (0 Bft) N-NO 22 6,4 C 0,0 km/h (0 Bft)
08.05.2015 07:25 8,3 C 15,5 C 84 % 1015,9 hPa 0,0 mm 0,0 km/h (0 Bft) O-SO 112 5,8 C 0,0 km/h (0 Bft)
08.05.2015 07:30 9,0 C 16,5 C 84 % 1015,9 hPa 0,0 mm 0,0 km/h (0 Bft) O-NO 67 6,4 C 0,0 km/h (0 Bft)
08.05.2015 07:35 9,9 C 17,4 C 84 % 1016,0 hPa 0,0 mm 0,0 km/h (0 Bft) O-SO 112 7,3 C 0,0 km/h (0 Bft)
08.05.2015 07:40 10,5 C 18,8 C 83 % 1016,0 hPa 0,0 mm 0,0 km/h (0 Bft) S 180 7,7 C 0,0 km/h (0 Bft)
08.05.2015 07:45 11,1 C 19,7 C 83 % 1016,0 hPa 0,0 mm 0,0 km/h (0 Bft) S 180 8,3 C 0,0 km/h (0 Bft)
08.05.2015 07:50 11,5 C 19,9 C 82 % 1016,0 hPa 0,0 mm 0,5 km/h (0 Bft) S 180 8,5 C 0,0 km/h (0 Bft)
08.05.2015 07:55 11,9 C 20,2 C 81 % 1016,1 hPa 0,0 mm 1,0 km/h (0 Bft) NW 315 8,7 C 0,0 km/h (0 Bft)
08.05.2015 08:00 12,8 C 20,8 C 80 % 1016,1 hPa 0,0 mm 0,5 km/h (0 Bft) N-NO 22 9,4 C 0,0 km/h (0 Bft)
08.05.2015 08:05 13,2 C 21,6 C 78 % 1016,1 hPa 0,0 mm 0,0 km/h (0 Bft) N-NO 22 9,4 C 0,0 km/h (0 Bft)
08.05.2015 08:10 13,3 C 22,2 C 77 % 1016,1 hPa 0,0 mm 0,0 km/h (0 Bft) N-NO 22 9,4 C 0,0 km/h (0 Bft)
08.05.2015 08:15 13,6 C 22,3 C 76 % 1015,7 hPa 0,0 mm 0,0 km/h (0 Bft) N-NO 22 9,4 C 0,0 km/h (0 Bft)
08.05.2015 08:20 14,3 C 22,9 C 75 % 1015,7 hPa 0,0 mm 0,0 km/h (0 Bft) NO 45 9,9 C 0,0 km/h (0 Bft)
08.05.2015 08:25 14,8 C 23,9 C 74 % 1015,7 hPa 0,0 mm 0,0 km/h (0 Bft) NO 45 10,2 C 0,0 km/h (0 Bft)
08.05.2015 08:30 15,0 C 23,5 C 72 % 1015,7 hPa 0,0 mm 0,0 km/h (0 Bft) NO 45 10,0 C 0,0 km/h (0 Bft)
08.05.2015 08:35 15,1 C 23,4 C 72 % 1015,3 hPa 0,0 mm 0,0 km/h (0 Bft) NO 45 10,1 C 0,0 km/h (0 Bft)
08.05.2015 08:40 15,3 C 23,8 C 70 % 1015,3 hPa 0,0 mm 0,3 km/h (0 Bft) N-NO 22 9,9 C 3,1 km/h (1 Bft)
08.05.2015 08:45 15,8 C 23,7 C 71 % 1015,3 hPa 0,0 mm 0,8 km/h (0 Bft) N-NO 22 10,6 C 6,0 km/h (2 Bft)
08.05.2015 08:50 16,1 C 23,2 C 69 % 1015,3 hPa 0,0 mm 2,1 km/h (1 Bft) NO 45 10,4 C 2,6 km/h (1 Bft)
08.05.2015 08:55 16,2 C 23,5 C 68 % 1015,5 hPa 0,0 mm 2,3 km/h (1 Bft) N-NO 22 10,3 C 0,0 km/h (0 Bft)
08.05.2015 09:00 16,4 C 23,7 C 68 % 1015,5 hPa 0,0 mm 2,1 km/h (1 Bft) O-NO 67 10,5 C 2,8 km/h (1 Bft)
08.05.2015 09:05 16,7 C 23,9 C 67 % 1015,5 hPa 0,0 mm 2,1 km/h (1 Bft) N-NW 337 10,5 C 4,9 km/h (1 Bft)
08.05.2015 09:10 16,9 C 23,9 C 66 % 1015,5 hPa 0,0 mm 2,1 km/h (1 Bft) NO 45 10,5 C 2,8 km/h (1 Bft)
08.05.2015 09:15 17,1 C 24,1 C 65 % 1015,4 hPa 0,0 mm 2,3 km/h (1 Bft) N-NW 337 10,5 C 6,2 km/h (2 Bft)
08.05.2015 09:20 17,0 C 23,8 C 65 % 1015,4 hPa 0,0 mm 2,8 km/h (1 Bft) NO 45 10,4 C 0,0 km/h (0 Bft)
08.05.2015 09:25 17,1 C 24,2 C 65 % 1015,4 hPa 0,0 mm 2,8 km/h (1 Bft) N-NW 337 10,5 C 3,4 km/h (1 Bft)
08.05.2015 09:30 17,4 C 24,1 C 62 % 1015,4 hPa 0,0 mm 2,1 km/h (1 Bft) O-SO 112 10,0 C 2,8 km/h (1 Bft)
08.05.2015 09:35 17,5 C 24,0 C 62 % 1015,5 hPa 0,0 mm 2,6 km/h (1 Bft) O-NO 67 10,1 C 4,9 km/h (1 Bft)
08.05.2015 09:40 17,6 C 24,0 C 60 % 1015,5 hPa 0,0 mm 3,1 km/h (1 Bft) O 90 9,7 C 0,0 km/h (0 Bft)
08.05.2015 09:45 18,1 C 24,6 C 60 % 1015,5 hPa 0,0 mm 3,1 km/h (1 Bft) O-NO 67 10,2 C 4,1 km/h (1 Bft)
08.05.2015 09:50 18,0 C 24,9 C 59 % 1015,5 hPa 0,0 mm 2,1 km/h (1 Bft) O-NO 67 9,9 C 4,7 km/h (1 Bft)
08.05.2015 09:55 17,8 C 24,7 C 59 % 1015,5 hPa 0,0 mm 2,8 km/h (1 Bft) O-NO 67 9,7 C 5,2 km/h (1 Bft)
08.05.2015 10:00 17,8 C 24,4 C 59 % 1015,5 hPa 0,0 mm 2,3 km/h (1 Bft) O-SO 112 9,7 C 4,1 km/h (1 Bft)
08.05.2015 10:05 17,9 C 24,6 C 58 % 1015,5 hPa 0,0 mm 1,3 km/h (1 Bft) N-NW 337 9,5 C 0,0 km/h (0 Bft)
08.05.2015 10:10 18,3 C 25,2 C 57 % 1015,5 hPa 0,0 mm 1,8 km/h (1 Bft) O-SO 112 9,6 C 6,0 km/h (2 Bft)
08.05.2015 10:15 18,3 C 24,9 C 56 % 1015,6 hPa 0,0 mm 3,4 km/h (1 Bft) NO 45 9,4 C 8,8 km/h (2 Bft)
08.05.2015 10:20 18,4 C 24,8 C 56 % 1015,6 hPa 0,0 mm 4,7 km/h (1 Bft) N 360 9,5 C 2,8 km/h (1 Bft)
08.05.2015 10:25 18,8 C 25,0 C 56 % 1015,6 hPa 0,0 mm 4,7 km/h (1 Bft) N-NW 337 9,8 C 6,0 km/h (2 Bft)
08.05.2015 10:30 19,3 C 25,5 C 54 % 1015,6 hPa 0,0 mm 4,7 km/h (1 Bft) NW 315 9,8 C 9,8 km/h (2 Bft)
08.05.2015 10:35 19,5 C 25,5 C 54 % 1015,7 hPa 0,0 mm 4,7 km/h (1 Bft) NW 315 9,9 C 6,2 km/h (2 Bft)
08.05.2015 10:40 19,4 C 25,1 C 49 % 1015,7 hPa 0,0 mm 6,7 km/h (2 Bft) NW 315 8,4 C 13,5 km/h (3 Bft)
08.05.2015 10:45 19,2 C 24,8 C 50 % 1015,7 hPa 0,0 mm 6,7 km/h (2 Bft) S-SW 202 8,5 C 3,1 km/h (1 Bft)
08.05.2015 10:50 19,3 C 24,9 C 52 % 1015,7 hPa 0,0 mm 4,1 km/h (1 Bft) NW 315 9,2 C 0,0 km/h (0 Bft)
08.05.2015 10:55 19,5 C 25,1 C 50 % 1015,6 hPa 0,0 mm 3,9 km/h (1 Bft) NW 315 8,8 C 10,9 km/h (2 Bft)
08.05.2015 11:00 19,4 C 24,6 C 48 % 1015,6 hPa 0,0 mm 7,3 km/h (2 Bft) W-SW 247 8,1 C 15,5 km/h (3 Bft)
08.05.2015 11:05 19,6 C 24,9 C 49 % 1015,6 hPa 0,0 mm 7,0 km/h (2 Bft) W-NW 292 8,6 C 7,0 km/h (2 Bft)
08.05.2015 11:10 19,8 C 25,2 C 48 % 1015,6 hPa 0,0 mm 5,7 km/h (1 Bft) NW 315 8,5 C 12,2 km/h (2 Bft)
08.05.2015 11:15 19,6 C 24,9 C 48 % 1015,6 hPa 0,0 mm 6,2 km/h (2 Bft) NW 315 8,3 C 10,4 km/h (2 Bft)
08.05.2015 11:20 19,6 C 25,2 C 46 % 1015,6 hPa 0,0 mm 6,7 km/h (2 Bft) W-SW 247 7,7 C 7,8 km/h (2 Bft)
08.05.2015 11:25 19,6 C 25,6 C 47 % 1015,6 hPa 0,0 mm 4,9 km/h (1 Bft) W-SW 247 8,0 C 0,0 km/h (0 Bft)
08.05.2015 11:30 20,3 C 26,4 C 47 % 1015,6 hPa 0,0 mm 4,1 km/h (1 Bft) NW 315 8,6 C 4,1 km/h (1 Bft)
08.05.2015 11:35 20,4 C 26,3 C 46 % 1015,4 hPa 0,0 mm 3,9 km/h (1 Bft) O-NO 67 8,4 C 0,0 km/h (0 Bft)
08.05.2015 11:40 20,4 C 25,5 C 47 % 1015,4 hPa 0,0 mm 7,3 km/h (2 Bft) NW 315 8,7 C 15,8 km/h (3 Bft)
08.05.2015 11:45 20,2 C 24,8 C 46 % 1015,4 hPa 0,0 mm 8,3 km/h (2 Bft) NW 315 8,2 C 9,8 km/h (2 Bft)
08.05.2015 11:50 20,5 C 25,2 C 47 % 1015,4 hPa 0,0 mm 6,2 km/h (2 Bft) NO 45 8,8 C 7,3 km/h (2 Bft)
08.05.2015 11:55 20,5 C 25,5 C 47 % 1015,5 hPa 0,0 mm 5,7 km/h (1 Bft) NO 45 8,8 C 8,0 km/h (2 Bft)
08.05.2015 12:00 20,5 C 25,4 C 47 % 1015,5 hPa 0,0 mm 6,2 km/h (2 Bft) NW 315 8,8 C 3,6 km/h (1 Bft)
08.05.2015 12:05 20,6 C 25,5 C 47 % 1015,5 hPa 0,0 mm 6,2 km/h (2 Bft) SW 225 8,9 C 4,9 km/h (1 Bft)
08.05.2015 12:10 20,5 C 25,5 C 46 % 1015,5 hPa 0,0 mm 3,9 km/h (1 Bft) NW 315 8,5 C 10,4 km/h (2 Bft)
08.05.2015 12:15 20,2 C 24,5 C 47 % 1015,6 hPa 0,0 mm 5,2 km/h (1 Bft) N-NW 337 8,5 C 8,5 km/h (2 Bft)
08.05.2015 12:20 19,8 C 23,3 C 47 % 1015,6 hPa 0,0 mm 6,7 km/h (2 Bft) N-NW 337 8,2 C 2,6 km/h (1 Bft)
08.05.2015 12:25 20,0 C 23,0 C 48 % 1015,6 hPa 0,0 mm 4,1 km/h (1 Bft) O-NO 67 8,7 C 0,0 km/h (0 Bft)
08.05.2015 12:30 20,8 C 24,6 C 47 % 1015,6 hPa 0,0 mm 4,7 km/h (1 Bft) W 270 9,1 C 7,8 km/h (2 Bft)
08.05.2015 12:35 21,1 C 25,5 C 48 % 1015,4 hPa 0,0 mm 4,9 km/h (1 Bft) NW 315 9,7 C 4,1 km/h (1 Bft)
08.05.2015 12:40 21,1 C 26,2 C 47 % 1015,4 hPa 0,0 mm 4,1 km/h (1 Bft) W 270 9,3 C 8,3 km/h (2 Bft)
08.05.2015 12:45 21,2 C 26,0 C 47 % 1015,4 hPa 0,0 mm 4,9 km/h (1 Bft) W-NW 292 9,4 C 4,4 km/h (1 Bft)
08.05.2015 12:50 21,2 C 24,8 C 46 % 1015,4 hPa 0,0 mm 6,5 km/h (2 Bft) N-NW 337 9,1 C 19,9 km/h (4 Bft)
08.05.2015 12:55 21,5 C 24,1 C 47 % 1015,2 hPa 0,0 mm 7,0 km/h (2 Bft) W 270 9,7 C 5,4 km/h (1 Bft)
08.05.2015 13:00 21,5 C 24,0 C 46 % 1015,2 hPa 0,0 mm 7,0 km/h (2 Bft) N-NO 22 9,4 C 3,1 km/h (1 Bft)
08.05.2015 13:05 21,5 C 24,3 C 46 % 1015,2 hPa 0,0 mm 7,0 km/h (2 Bft) N-NW 337 9,4 C 13,7 km/h (3 Bft)
08.05.2015 13:10 21,4 C 24,9 C 44 % 1015,2 hPa 0,0 mm 6,7 km/h (2 Bft) NO 45 8,6 C 11,1 km/h (2 Bft)
08.05.2015 13:15 21,5 C 25,4 C 46 % 1015,1 hPa 0,0 mm 6,7 km/h (2 Bft) W-NW 292 9,4 C 11,1 km/h (2 Bft)
08.05.2015 13:20 21,5 C 25,4 C 45 % 1015,1 hPa 0,0 mm 9,6 km/h (2 Bft) W-NW 292 9,1 C 23,0 km/h (4 Bft)
08.05.2015 13:25 21,7 C 25,4 C 45 % 1015,1 hPa 0,0 mm 10,4 km/h (2 Bft) NO 45 9,2 C 10,9 km/h (2 Bft)
08.05.2015 13:30 21,8 C 25,9 C 43 % 1015,1 hPa 0,0 mm 8,3 km/h (2 Bft) N-NO 22 8,7 C 7,5 km/h (2 Bft)
08.05.2015 13:35 21,8 C 26,2 C 44 % 1015,1 hPa 0,0 mm 6,7 km/h (2 Bft) O-NO 67 9,0 C 4,4 km/h (1 Bft)
08.05.2015 13:40 21,4 C 25,9 C 43 % 1015,1 hPa 0,0 mm 5,2 km/h (1 Bft) NW 315 8,3 C 5,7 km/h (1 Bft)
08.05.2015 13:45 21,7 C 25,7 C 44 % 1015,1 hPa 0,0 mm 8,0 km/h (2 Bft) NW 315 8,9 C 15,3 km/h (3 Bft)
08.05.2015 13:50 21,9 C 25,8 C 43 % 1015,1 hPa 0,0 mm 7,3 km/h (2 Bft) N-NW 337 8,7 C 3,6 km/h (1 Bft)
08.05.2015 13:55 22,0 C 26,1 C 44 % 1015,2 hPa 0,0 mm 7,0 km/h (2 Bft) N-NW 337 9,2 C 14,0 km/h (3 Bft)
08.05.2015 14:00 22,1 C 26,0 C 43 % 1015,2 hPa 0,0 mm 7,5 km/h (2 Bft) N-NO 22 8,9 C 6,5 km/h (2 Bft)
08.05.2015 14:05 22,1 C 26,5 C 43 % 1015,2 hPa 0,0 mm 7,0 km/h (2 Bft) N-NW 337 8,9 C 18,6 km/h (3 Bft)
08.05.2015 14:10 21,4 C 25,2 C 42 % 1015,2 hPa 0,0 mm 6,0 km/h (2 Bft) N 360 8,0 C 4,7 km/h (1 Bft)
08.05.2015 14:15 21,1 C 24,3 C 43 % 1015,0 hPa 0,0 mm 7,5 km/h (2 Bft) N-NW 337 8,0 C 16,8 km/h (3 Bft)
08.05.2015 14:20 21,6 C 24,7 C 44 % 1015,0 hPa 0,0 mm 8,8 km/h (2 Bft) NW 315 8,8 C 10,9 km/h (2 Bft)
08.05.2015 14:25 21,2 C 24,3 C 43 % 1015,0 hPa 0,0 mm 10,9 km/h (2 Bft) N-NW 337 8,1 C 12,4 km/h (3 Bft)
08.05.2015 14:30 20,6 C 23,0 C 42 % 1015,0 hPa 0,0 mm 7,5 km/h (2 Bft) W 270 7,2 C 2,8 km/h (1 Bft)
08.05.2015 14:35 20,6 C 22,9 C 43 % 1015,0 hPa 0,0 mm 4,7 km/h (1 Bft) NW 315 7,6 C 6,7 km/h (2 Bft)
08.05.2015 14:40 21,1 C 23,1 C 45 % 1015,0 hPa 0,0 mm 2,3 km/h (1 Bft) O-SO 112 8,7 C 3,9 km/h (1 Bft)
08.05.2015 14:45 21,3 C 24,3 C 43 % 1015,0 hPa 0,0 mm 3,9 km/h (1 Bft) NO 45 8,2 C 6,5 km/h (2 Bft)
08.05.2015 14:50 21,5 C 25,5 C 43 % 1015,0 hPa 0,0 mm 5,7 km/h (1 Bft) W-NW 292 8,4 C 3,1 km/h (1 Bft)
08.05.2015 14:55 21,8 C 26,2 C 43 % 1014,9 hPa 0,0 mm 6,5 km/h (2 Bft) NW 315 8,7 C 11,1 km/h (2 Bft)
08.05.2015 15:00 21,9 C 26,6 C 43 % 1014,9 hPa 0,0 mm 6,5 km/h (2 Bft) O-SO 112 8,7 C 10,4 km/h (2 Bft)
08.05.2015 15:05 21,7 C 26,4 C 43 % 1014,9 hPa 0,0 mm 6,0 km/h (2 Bft) NO 45 8,6 C 0,0 km/h (0 Bft)
08.05.2015 15:10 22,0 C 27,2 C 43 % 1014,9 hPa 0,0 mm 3,4 km/h (1 Bft) W 270 8,8 C 7,3 km/h (2 Bft)
08.05.2015 15:15 22,2 C 27,5 C 42 % 1014,8 hPa 0,0 mm 3,1 km/h (1 Bft) W-SW 247 8,7 C 4,9 km/h (1 Bft)
08.05.2015 15:20 22,2 C 27,5 C 42 % 1014,8 hPa 0,0 mm 4,9 km/h (1 Bft) N 360 8,7 C 8,8 km/h (2 Bft)
08.05.2015 15:25 22,2 C 27,1 C 42 % 1014,8 hPa 0,0 mm 6,5 km/h (2 Bft) W-NW 292 8,7 C 8,0 km/h (2 Bft)
08.05.2015 15:30 22,0 C 26,6 C 42 % 1014,8 hPa 0,0 mm 6,0 km/h (2 Bft) NW 315 8,5 C 4,1 km/h (1 Bft)
08.05.2015 15:35 21,9 C 26,2 C 42 % 1014,5 hPa 0,0 mm 3,9 km/h (1 Bft) W 270 8,4 C 5,4 km/h (1 Bft)
08.05.2015 15:40 21,1 C 24,2 C 43 % 1014,5 hPa 0,0 mm 4,7 km/h (1 Bft) SW 225 8,0 C 2,6 km/h (1 Bft)
08.05.2015 15:45 21,5 C 24,7 C 42 % 1014,5 hPa 0,0 mm 3,9 km/h (1 Bft) W-SW 247 8,0 C 3,4 km/h (1 Bft)
08.05.2015 15:50 21,9 C 26,4 C 42 % 1014,5 hPa 0,0 mm 1,0 km/h (0 Bft) O-NO 67 8,4 C 0,0 km/h (0 Bft)
08.05.2015 15:55 21,9 C 26,9 C 42 % 1014,3 hPa 0,0 mm 2,8 km/h (1 Bft) SO 135 8,4 C 10,4 km/h (2 Bft)
08.05.2015 16:00 21,8 C 26,9 C 42 % 1014,3 hPa 0,0 mm 5,7 km/h (1 Bft) N-NO 22 8,3 C 6,2 km/h (2 Bft)
08.05.2015 16:05 21,6 C 26,9 C 42 % 1014,3 hPa 0,0 mm 5,2 km/h (1 Bft) O-NO 67 8,1 C 0,0 km/h (0 Bft)
08.05.2015 16:10 21,4 C 27,0 C 43 % 1014,3 hPa 0,0 mm 3,6 km/h (1 Bft) W-SW 247 8,3 C 8,3 km/h (2 Bft)
08.05.2015 16:15 21,4 C 27,3 C 43 % 1014,1 hPa 0,0 mm 3,6 km/h (1 Bft) W-SW 247 8,3 C 0,0 km/h (0 Bft)
08.05.2015 16:20 21,2 C 27,7 C 43 % 1014,1 hPa 0,0 mm 4,7 km/h (1 Bft) W-NW 292 8,1 C 7,0 km/h (2 Bft)
08.05.2015 16:25 21,1 C 27,2 C 43 % 1014,1 hPa 0,0 mm 6,0 km/h (2 Bft) N 360 8,0 C 7,0 km/h (2 Bft)
08.05.2015 16:30 21,2 C 26,8 C 42 % 1014,1 hPa 0,0 mm 8,3 km/h (2 Bft) NW 315 7,8 C 4,1 km/h (1 Bft)
08.05.2015 16:35 21,2 C 26,8 C 42 % 1014,0 hPa 0,0 mm 7,5 km/h (2 Bft) W-SW 247 7,8 C 5,7 km/h (1 Bft)
08.05.2015 16:40 21,1 C 27,0 C 42 % 1014,0 hPa 0,0 mm 5,2 km/h (1 Bft) NW 315 7,7 C 3,9 km/h (1 Bft)
08.05.2015 16:45 21,1 C 25,9 C 43 % 1014,0 hPa 0,0 mm 6,7 km/h (2 Bft) NW 315 8,0 C 4,9 km/h (1 Bft)
08.05.2015 16:50 21,1 C 24,4 C 43 % 1014,0 hPa 0,0 mm 8,0 km/h (2 Bft) N-NO 22 8,0 C 9,8 km/h (2 Bft)
08.05.2015 16:55 21,2 C 23,4 C 43 % 1013,8 hPa 0,0 mm 6,5 km/h (2 Bft) W-SW 247 8,1 C 0,0 km/h (0 Bft)
08.05.2015 17:00 21,2 C 23,1 C 43 % 1013,8 hPa 0,0 mm 6,5 km/h (2 Bft) NW 315 8,1 C 13,2 km/h (3 Bft)
08.05.2015 17:05 21,2 C 22,6 C 41 % 1013,8 hPa 0,0 mm 7,5 km/h (2 Bft) N 360 7,4 C 11,9 km/h (2 Bft)
08.05.2015 17:10 21,1 C 22,3 C 41 % 1013,8 hPa 0,0 mm 8,3 km/h (2 Bft) W 270 7,3 C 11,9 km/h (2 Bft)
08.05.2015 17:15 21,0 C 22,1 C 41 % 1013,8 hPa 0,0 mm 8,8 km/h (2 Bft) O-NO 67 7,2 C 17,3 km/h (3 Bft)
08.05.2015 17:20 21,0 C 21,9 C 42 % 1013,8 hPa 0,0 mm 8,3 km/h (2 Bft) NW 315 7,6 C 17,1 km/h (3 Bft)
08.05.2015 17:25 21,0 C 21,9 C 42 % 1013,8 hPa 0,0 mm 9,8 km/h (2 Bft) W-NW 292 7,6 C 13,2 km/h (3 Bft)
08.05.2015 17:30 20,8 C 21,7 C 41 % 1013,8 hPa 0,0 mm 10,9 km/h (2 Bft) NW 315 7,1 C 11,4 km/h (2 Bft)
08.05.2015 17:35 20,8 C 21,7 C 41 % 1013,9 hPa 0,0 mm 9,8 km/h (2 Bft) NW 315 7,1 C 11,7 km/h (2 Bft)
08.05.2015 17:40 20,9 C 21,8 C 42 % 1013,9 hPa 0,0 mm 7,5 km/h (2 Bft) NW 315 7,5 C 8,5 km/h (2 Bft)
08.05.2015 17:45 21,0 C 21,8 C 41 % 1013,9 hPa 0,0 mm 6,5 km/h (2 Bft) N-NW 337 7,2 C 9,8 km/h (2 Bft)
08.05.2015 17:50 21,1 C 21,8 C 41 % 1013,9 hPa 0,0 mm 8,0 km/h (2 Bft) N-NW 337 7,3 C 5,7 km/h (1 Bft)
08.05.2015 17:55 21,1 C 22,0 C 42 % 1013,8 hPa 0,0 mm 9,1 km/h (2 Bft) N-NW 337 7,7 C 10,1 km/h (2 Bft)
08.05.2015 18:00 21,1 C 22,1 C 41 % 1013,8 hPa 0,0 mm 8,5 km/h (2 Bft) N-NO 22 7,3 C 14,5 km/h (3 Bft)
08.05.2015 18:05 21,0 C 22,1 C 41 % 1013,8 hPa 0,0 mm 7,3 km/h (2 Bft) NW 315 7,2 C 6,2 km/h (2 Bft)
08.05.2015 18:10 20,9 C 22,1 C 42 % 1013,8 hPa 0,0 mm 6,5 km/h (2 Bft) N-NO 22 7,5 C 8,3 km/h (2 Bft)
08.05.2015 18:15 20,8 C 22,1 C 41 % 1013,6 hPa 0,0 mm 7,0 km/h (2 Bft) NW 315 7,1 C 7,8 km/h (2 Bft)
08.05.2015 18:20 20,6 C 21,8 C 41 % 1013,6 hPa 0,0 mm 7,0 km/h (2 Bft) N-NO 22 6,9 C 3,6 km/h (1 Bft)
08.05.2015 18:25 20,6 C 21,8 C 41 % 1013,6 hPa 0,0 mm 4,9 km/h (1 Bft) N-NW 337 6,9 C 6,0 km/h (2 Bft)
08.05.2015 18:30 20,5 C 21,7 C 42 % 1013,6 hPa 0,0 mm 3,4 km/h (1 Bft) NO 45 7,1 C 0,0 km/h (0 Bft)
08.05.2015 18:35 20,4 C 21,7 C 43 % 1013,6 hPa 0,0 mm 3,9 km/h (1 Bft) O-SO 112 7,4 C 9,3 km/h (2 Bft)
08.05.2015 18:40 20,2 C 21,7 C 45 % 1013,6 hPa 0,0 mm 4,9 km/h (1 Bft) O 90 7,9 C 12,4 km/h (3 Bft)
08.05.2015 18:45 20,3 C 21,7 C 45 % 1013,6 hPa 0,0 mm 6,7 km/h (2 Bft) N-NO 22 8,0 C 13,7 km/h (3 Bft)
08.05.2015 18:50 20,0 C 21,2 C 44 % 1013,6 hPa 0,0 mm 8,0 km/h (2 Bft) O-NO 67 7,4 C 12,4 km/h (3 Bft)
08.05.2015 18:55 19,8 C 20,8 C 44 % 1013,7 hPa 0,0 mm 9,1 km/h (2 Bft) SO 135 7,2 C 13,2 km/h (3 Bft)
08.05.2015 19:00 19,4 C 20,2 C 44 % 1013,7 hPa 0,0 mm 7,8 km/h (2 Bft) NO 45 6,8 C 7,8 km/h (2 Bft)
08.05.2015 19:05 19,2 C 19,8 C 45 % 1013,7 hPa 0,0 mm 4,9 km/h (1 Bft) NO 45 7,0 C 0,0 km/h (0 Bft)
08.05.2015 19:10 18,9 C 19,3 C 45 % 1013,7 hPa 0,0 mm 4,1 km/h (1 Bft) N-NW 337 6,7 C 5,7 km/h (1 Bft)
08.05.2015 19:15 18,8 C 19,1 C 45 % 1014,0 hPa 0,0 mm 3,6 km/h (1 Bft) W 270 6,6 C 0,0 km/h (0 Bft)
08.05.2015 19:20 18,7 C 18,9 C 46 % 1014,0 hPa 0,0 mm 4,9 km/h (1 Bft) N-NO 22 6,8 C 9,8 km/h (2 Bft)
08.05.2015 19:25 18,7 C 18,9 C 46 % 1014,0 hPa 0,0 mm 6,0 km/h (2 Bft) O-NO 67 6,8 C 7,5 km/h (2 Bft)
08.05.2015 19:30 18,4 C 18,8 C 48 % 1014,0 hPa 0,0 mm 7,0 km/h (2 Bft) NO 45 7,2 C 7,8 km/h (2 Bft)
08.05.2015 19:35 18,3 C 18,8 C 48 % 1014,2 hPa 0,0 mm 5,7 km/h (1 Bft) NO 45 7,1 C 8,0 km/h (2 Bft)
08.05.2015 19:40 18,1 C 18,5 C 49 % 1014,2 hPa 0,0 mm 5,7 km/h (1 Bft) N-NO 22 7,2 C 4,9 km/h (1 Bft)
08.05.2015 19:45 18,1 C 18,5 C 49 % 1014,2 hPa 0,0 mm 6,2 km/h (2 Bft) NW 315 7,2 C 4,7 km/h (1 Bft)
08.05.2015 19:50 18,0 C 18,5 C 49 % 1014,2 hPa 0,0 mm 6,2 km/h (2 Bft) N-NO 22 7,1 C 11,1 km/h (2 Bft)
08.05.2015 19:55 18,0 C 18,6 C 49 % 1014,1 hPa 0,0 mm 5,4 km/h (1 Bft) N-NW 337 7,1 C 2,8 km/h (1 Bft)
08.05.2015 20:00 17,7 C 18,5 C 49 % 1014,1 hPa 0,0 mm 3,9 km/h (1 Bft) W-NW 292 6,9 C 4,7 km/h (1 Bft)
08.05.2015 20:05 17,4 C 18,3 C 50 % 1014,1 hPa 0,0 mm 2,3 km/h (1 Bft) N 360 6,9 C 3,4 km/h (1 Bft)
08.05.2015 20:10 17,1 C 17,5 C 50 % 1014,1 hPa 0,0 mm 3,1 km/h (1 Bft) NW 315 6,6 C 2,8 km/h (1 Bft)
08.05.2015 20:15 16,8 C 17,1 C 50 % 1014,3 hPa 0,0 mm 2,6 km/h (1 Bft) NW 315 6,3 C 0,0 km/h (0 Bft)
08.05.2015 20:20 16,5 C 16,6 C 50 % 1014,3 hPa 0,0 mm 1,3 km/h (1 Bft) N-NO 22 6,0 C 7,8 km/h (2 Bft)
08.05.2015 20:25 16,3 C 16,4 C 50 % 1014,3 hPa 0,0 mm 2,1 km/h (1 Bft) NW 315 5,9 C 0,0 km/h (0 Bft)
08.05.2015 20:30 15,9 C 15,9 C 51 % 1014,3 hPa 0,0 mm 1,3 km/h (1 Bft) W-SW 247 5,8 C 0,0 km/h (0 Bft)
08.05.2015 20:35 15,7 C 15,6 C 52 % 1014,3 hPa 0,0 mm 0,0 km/h (0 Bft) SW 225 5,9 C 0,0 km/h (0 Bft)
08.05.2015 20:40 15,5 C 15,3 C 53 % 1014,3 hPa 0,0 mm 0,5 km/h (0 Bft) SW 225 6,0 C 5,2 km/h (1 Bft)
08.05.2015 20:45 15,1 C 15,0 C 56 % 1014,3 hPa 0,0 mm 2,8 km/h (1 Bft) SW 225 6,4 C 7,3 km/h (2 Bft)
08.05.2015 20:50 15,0 C 14,9 C 57 % 1014,3 hPa 0,0 mm 3,1 km/h (1 Bft) NW 315 6,6 C 4,7 km/h (1 Bft)
08.05.2015 20:55 15,2 C 15,0 C 57 % 1014,9 hPa 0,0 mm 3,6 km/h (1 Bft) W-SW 247 6,7 C 6,0 km/h (2 Bft)
08.05.2015 21:00 15,5 C 15,3 C 57 % 1014,9 hPa 0,0 mm 7,3 km/h (2 Bft) W 270 7,0 C 6,7 km/h (2 Bft)
08.05.2015 21:05 15,2 C 15,1 C 57 % 1014,9 hPa 0,0 mm 7,3 km/h (2 Bft) W-SW 247 6,7 C 17,1 km/h (3 Bft)
08.05.2015 21:10 15,1 C 15,0 C 57 % 1014,9 hPa 0,0 mm 6,5 km/h (2 Bft) NW 315 6,6 C 10,9 km/h (2 Bft)
08.05.2015 21:15 14,9 C 14,9 C 57 % 1015,4 hPa 0,0 mm 7,5 km/h (2 Bft) W-NW 292 6,5 C 6,5 km/h (2 Bft)
08.05.2015 21:20 14,5 C 14,5 C 57 % 1015,4 hPa 0,0 mm 5,4 km/h (1 Bft) W-SW 247 6,1 C 3,4 km/h (1 Bft)
08.05.2015 21:25 14,3 C 14,2 C 57 % 1015,4 hPa 0,0 mm 4,1 km/h (1 Bft) O-SO 112 5,9 C 3,1 km/h (1 Bft)
08.05.2015 21:30 14,0 C 13,9 C 58 % 1015,4 hPa 0,0 mm 3,6 km/h (1 Bft) W-NW 292 5,9 C 4,1 km/h (1 Bft)
08.05.2015 21:35 13,9 C 13,8 C 58 % 1015,6 hPa 0,0 mm 4,9 km/h (1 Bft) S-SW 202 5,8 C 7,3 km/h (2 Bft)
08.05.2015 21:40 13,8 C 13,7 C 58 % 1015,6 hPa 0,0 mm 6,0 km/h (2 Bft) W-SW 247 5,7 C 17,9 km/h (3 Bft)
08.05.2015 21:45 13,7 C 13,5 C 58 % 1015,6 hPa 0,0 mm 6,2 km/h (2 Bft) W-SW 247 5,6 C 9,8 km/h (2 Bft)
08.05.2015 21:50 13,7 C 13,5 C 59 % 1015,6 hPa 0,0 mm 6,2 km/h (2 Bft) W-SW 247 5,8 C 13,2 km/h (3 Bft)
08.05.2015 21:55 13,7 C 13,5 C 59 % 1016,0 hPa 0,0 mm 7,3 km/h (2 Bft) NW 315 5,8 C 7,8 km/h (2 Bft)
08.05.2015 22:00 13,6 C 13,4 C 59 % 1016,0 hPa 0,0 mm 9,3 km/h (2 Bft) W 270 5,7 C 31,1 km/h (5 Bft)
08.05.2015 22:05 13,7 C 13,4 C 59 % 1016,0 hPa 0,0 mm 11,4 km/h (2 Bft) W-NW 292 5,8 C 15,5 km/h (3 Bft)
08.05.2015 22:10 13,6 C 13,4 C 59 % 1016,0 hPa 0,0 mm 11,1 km/h (2 Bft) SW 225 5,7 C 22,8 km/h (4 Bft)
08.05.2015 22:15 13,5 C 13,3 C 60 % 1016,1 hPa 0,0 mm 10,4 km/h (2 Bft) NW 315 5,9 C 12,9 km/h (3 Bft)
08.05.2015 22:20 13,5 C 13,4 C 61 % 1016,1 hPa 0,0 mm 9,6 km/h (2 Bft) W 270 6,1 C 8,8 km/h (2 Bft)
08.05.2015 22:25 13,4 C 13,3 C 61 % 1016,1 hPa 0,0 mm 9,6 km/h (2 Bft) W-SW 247 6,0 C 7,0 km/h (2 Bft)
08.05.2015 22:30 13,3 C 13,2 C 63 % 1016,1 hPa 0,0 mm 9,1 km/h (2 Bft) W-NW 292 6,4 C 14,8 km/h (3 Bft)
08.05.2015 22:35 13,3 C 13,2 C 63 % 1016,3 hPa 0,0 mm 8,8 km/h (2 Bft) W-SW 247 6,4 C 13,2 km/h (3 Bft)
08.05.2015 22:40 13,2 C 13,1 C 64 % 1016,3 hPa 0,0 mm 8,5 km/h (2 Bft) SW 225 6,5 C 4,7 km/h (1 Bft)
08.05.2015 22:45 13,2 C 13,1 C 65 % 1016,3 hPa 0,0 mm 9,1 km/h (2 Bft) W 270 6,8 C 10,4 km/h (2 Bft)
08.05.2015 22:50 13,1 C 13,0 C 65 % 1016,3 hPa 0,0 mm 8,3 km/h (2 Bft) W-NW 292 6,7 C 22,0 km/h (4 Bft)
08.05.2015 22:55 13,0 C 12,9 C 65 % 1016,4 hPa 0,0 mm 6,7 km/h (2 Bft) SW 225 6,6 C 5,4 km/h (1 Bft)
08.05.2015 23:00 13,1 C 13,0 C 66 % 1016,4 hPa 0,0 mm 8,3 km/h (2 Bft) W-SW 247 6,9 C 9,3 km/h (2 Bft)
08.05.2015 23:05 13,0 C 12,9 C 66 % 1016,4 hPa 0,0 mm 8,3 km/h (2 Bft) W-NW 292 6,8 C 16,1 km/h (3 Bft)
08.05.2015 23:10 13,0 C 12,9 C 67 % 1016,4 hPa 0,0 mm 8,8 km/h (2 Bft) W-SW 247 7,0 C 13,7 km/h (3 Bft)
08.05.2015 23:15 12,9 C 12,8 C 68 % 1016,7 hPa 0,0 mm 9,3 km/h (2 Bft) S-SW 202 7,1 C 9,8 km/h (2 Bft)
08.05.2015 23:20 12,8 C 12,8 C 69 % 1016,7 hPa 0,0 mm 9,1 km/h (2 Bft) W 270 7,3 C 12,2 km/h (2 Bft)
08.05.2015 23:25 12,8 C 12,7 C 69 % 1016,7 hPa 0,0 mm 8,5 km/h (2 Bft) SW 225 7,3 C 8,3 km/h (2 Bft)
08.05.2015 23:30 12,7 C 12,6 C 70 % 1016,7 hPa 0,0 mm 9,1 km/h (2 Bft) W-NW 292 7,4 C 7,5 km/h (2 Bft)
08.05.2015 23:35 12,6 C 12,5 C 71 % 1016,6 hPa 0,0 mm 8,8 km/h (2 Bft) W-NW 292 7,5 C 25,1 km/h (4 Bft)
08.05.2015 23:40 12,5 C 12,4 C 72 % 1016,6 hPa 0,0 mm 8,5 km/h (2 Bft) W-SW 247 7,6 C 22,5 km/h (4 Bft)
08.05.2015 23:45 12,5 C 12,4 C 72 % 1016,6 hPa 0,0 mm 9,3 km/h (2 Bft) W-SW 247 7,6 C 6,5 km/h (2 Bft)
08.05.2015 23:50 12,4 C 12,2 C 73 % 1016,6 hPa 0,0 mm 9,3 km/h (2 Bft) W-SW 247 7,7 C 10,4 km/h (2 Bft)
08.05.2015 23:55 12,4 C 12,2 C 73 % 1016,8 hPa 0,0 mm 9,6 km/h (2 Bft) W-NW 292 7,7 C 22,3 km/h (4 Bft)
_ Min-Zeit 01:30 01:10 18:25 18:50 - 20:35 - - 01:30 20:35
Minimum _ 5,4 C 5,2 C 41 % 1013,6 hPa - 0,0 km/h (0 Bft) - - 3,1 C 0,0 km/h (0 Bft)
_ Max-Zeit 15:25 16:20 06:25 00:10 23:55 22:05 - - 08:45 22:00
Maximum _ 22,2 C 27,7 C 90 % 1017,5 hPa 0,0 mm 11,4 km/h
W-NW (2 Bft)
- - 10,6 C 31,1 km/h
W (5 Bft)
Durchschnitt _ 14,5 C 16,8 C 63 % 1015,4 hPa #0,0 mm 3,9 km/h (1 Bft) NW - 6,9 C 5,3 km/h (1 Bft)